createdAt,value
2016-12-30T00:00:27.326Z,73.46
2016-12-30T00:01:36.446Z,73.74
2016-12-30T00:02:45.582Z,73.84
2016-12-30T00:03:54.735Z,73.55
2016-12-30T00:05:03.790Z,73.55
2016-12-30T00:06:12.777Z,73.55
2016-12-30T00:07:22.173Z,73.46
2016-12-30T00:08:31.697Z,73.74
2016-12-30T00:09:41.153Z,73.46
2016-12-30T00:10:50.133Z,73.94
2016-12-30T00:11:59.250Z,73.16
2016-12-30T00:13:08.253Z,74.04
2016-12-30T00:14:17.287Z,73.55
2016-12-30T00:15:26.438Z,73.84
2016-12-30T00:16:36.648Z,73.84
2016-12-30T00:17:45.869Z,73.8
2016-12-30T00:18:55.146Z,74.1
2016-12-30T00:20:04.718Z,74.58
2016-12-30T00:21:14.194Z,74.35
2016-12-30T00:22:23.448Z,74.58
2016-12-30T00:23:33.168Z,73.94
2016-12-30T00:24:42.227Z,73.65
2016-12-30T00:25:51.367Z,73.55
2016-12-30T00:27:00.533Z,73.84
2016-12-30T00:28:09.688Z,73.65
2016-12-30T00:29:18.739Z,73.55
2016-12-30T00:30:27.835Z,73.84
2016-12-30T00:31:36.857Z,73.55
2016-12-30T00:32:46.249Z,74.04
2016-12-30T00:33:55.239Z,74.04
2016-12-30T00:35:04.406Z,73.84
2016-12-30T00:36:13.469Z,74.04
2016-12-30T00:37:22.609Z,74.32
2016-12-30T00:38:31.767Z,74.23
2016-12-30T00:39:40.828Z,74.13
2016-12-30T00:40:50.460Z,74.13
2016-12-30T00:41:59.706Z,74.13
2016-12-30T00:43:09.224Z,74.13
2016-12-30T00:44:18.272Z,73.8
2016-12-30T00:45:27.355Z,73.94
2016-12-30T00:46:36.362Z,74.13
2016-12-30T00:47:45.491Z,74.19
2016-12-30T00:48:54.964Z,74
2016-12-30T00:50:04.116Z,73.94
2016-12-30T00:51:13.701Z,73.55
2016-12-30T00:52:22.783Z,74.04
2016-12-30T00:53:32.159Z,73.74
2016-12-30T00:54:41.150Z,73.65
2016-12-30T00:55:50.389Z,73.94
2016-12-30T00:56:59.881Z,73.55
2016-12-30T00:58:08.863Z,73.74
2016-12-30T00:59:18.219Z,73.46
2016-12-30T01:00:27.185Z,73.65
2016-12-30T01:01:36.203Z,73.36
2016-12-30T01:02:45.557Z,73.65
2016-12-30T01:03:55.092Z,74.04
2016-12-30T01:05:05.143Z,73.22
2016-12-30T01:06:14.177Z,73.8
2016-12-30T01:07:23.475Z,73.8
2016-12-30T01:08:32.464Z,73.61
2016-12-30T01:09:41.453Z,73.46
2016-12-30T01:10:50.919Z,73.55
2016-12-30T01:11:59.942Z,73.74
2016-12-30T01:13:08.930Z,73.55
2016-12-30T01:14:17.904Z,73.8
2016-12-30T01:15:26.933Z,73.32
2016-12-30T01:16:35.924Z,66.46
2016-12-30T01:17:44.899Z,62.5
2016-12-30T01:18:53.874Z,61.02
2016-12-30T01:20:02.870Z,59.96
2016-12-30T01:21:11.874Z,58.68
2016-12-30T01:22:20.859Z,57.78
2016-12-30T01:23:29.837Z,57.49
2016-12-30T01:24:38.838Z,56.88
2016-12-30T01:25:47.800Z,56.88
2016-12-30T01:26:56.788Z,55.92
2016-12-30T01:28:05.779Z,56.57
2016-12-30T01:29:14.765Z,56.82
2016-12-30T01:30:23.754Z,57.02
2016-12-30T01:31:32.727Z,57.09
2016-12-30T01:32:41.704Z,56.32
2016-12-30T01:33:50.676Z,56.29
2016-12-30T01:34:59.659Z,56.65
2016-12-30T01:36:08.645Z,56.26
2016-12-30T01:37:17.658Z,56.16
2016-12-30T01:38:26.634Z,56.45
2016-12-30T01:39:35.611Z,56.62
2016-12-30T01:40:44.622Z,56.04
2016-12-30T01:41:53.593Z,56.81
2016-12-30T01:43:02.593Z,56.21
2016-12-30T01:44:11.565Z,56.3
2016-12-30T01:45:20.547Z,56.01
2016-12-30T01:46:29.519Z,56.01
2016-12-30T01:47:38.504Z,56.01
2016-12-30T01:48:47.485Z,55.79
2016-12-30T01:49:56.467Z,56.27
2016-12-30T01:51:05.445Z,56.37
2016-12-30T01:52:14.521Z,56.53
2016-12-30T01:53:23.501Z,56.46
2016-12-30T01:54:32.475Z,55.89
2016-12-30T01:55:41.438Z,55.96
2016-12-30T01:56:50.432Z,56.05
2016-12-30T01:57:59.404Z,55.86
2016-12-30T01:59:08.407Z,56.12
2016-12-30T02:00:17.383Z,56.51
2016-12-30T02:01:26.354Z,55.83
2016-12-30T02:02:35.360Z,56.12
2016-12-30T02:03:44.346Z,56.02
2016-12-30T02:04:53.314Z,56.41
2016-12-30T02:06:02.306Z,56.7
2016-12-30T02:07:11.318Z,56.38
2016-12-30T02:08:20.295Z,56.67
2016-12-30T02:09:29.256Z,56.67
2016-12-30T02:10:38.231Z,56.86
2016-12-30T02:11:47.204Z,56.86
2016-12-30T02:12:56.193Z,56.96
2016-12-30T02:14:05.176Z,57.15
2016-12-30T02:15:14.144Z,56.67
2016-12-30T02:16:23.132Z,56.19
2016-12-30T02:17:32.110Z,56.09
2016-12-30T02:18:41.093Z,56.41
2016-12-30T02:19:50.077Z,54.97
2016-12-30T02:20:59.064Z,54.13
2016-12-30T02:22:08.045Z,53.85
2016-12-30T02:23:17.077Z,54.04
2016-12-30T02:24:26.060Z,53.75
2016-12-30T02:25:35.033Z,54.33
2016-12-30T02:26:44.008Z,53.91
2016-12-30T02:27:52.982Z,54.39
2016-12-30T02:29:01.982Z,54.3
2016-12-30T02:30:11.008Z,54.39
2016-12-30T02:31:19.993Z,53.91
2016-12-30T02:32:28.976Z,54.11
2016-12-30T02:33:37.943Z,53.72
2016-12-30T02:34:46.935Z,53.72
2016-12-30T02:35:55.914Z,53.72
2016-12-30T02:37:04.881Z,53.44
2016-12-30T02:38:13.865Z,53.82
2016-12-30T02:39:22.835Z,54.39
2016-12-30T02:40:31.812Z,55.04
2016-12-30T02:41:40.792Z,54.75
2016-12-30T02:42:49.770Z,54.68
2016-12-30T02:43:58.747Z,54.85
2016-12-30T02:45:07.718Z,54.56
2016-12-30T02:46:16.688Z,53.82
2016-12-30T02:47:25.666Z,53.7
2016-12-30T02:48:34.651Z,54.27
2016-12-30T02:49:43.621Z,53.89
2016-12-30T02:50:52.581Z,54.56
2016-12-30T02:52:01.586Z,53.79
2016-12-30T02:53:10.617Z,53.89
2016-12-30T02:54:19.852Z,53.99
2016-12-30T02:55:29.414Z,54.27
2016-12-30T02:56:38.431Z,54.75
2016-12-30T02:57:47.426Z,54.27
2016-12-30T02:58:56.407Z,54.37
2016-12-30T03:00:05.381Z,54.08
2016-12-30T03:01:14.779Z,54.24
2016-12-30T03:02:23.751Z,55.11
2016-12-30T03:03:32.740Z,54.82
2016-12-30T03:04:41.711Z,54.34
2016-12-30T03:05:50.685Z,54.34
2016-12-30T03:06:59.659Z,54.85
2016-12-30T03:08:08.645Z,54.53
2016-12-30T03:09:17.622Z,54.91
2016-12-30T03:10:26.593Z,54.79
2016-12-30T03:11:35.567Z,54.53
2016-12-30T03:12:44.539Z,53.86
2016-12-30T03:13:53.547Z,54.46
2016-12-30T03:15:02.535Z,54.05
2016-12-30T03:16:11.511Z,53.96
2016-12-30T03:17:20.487Z,54.24
2016-12-30T03:18:29.464Z,53.83
2016-12-30T03:19:38.443Z,54.05
2016-12-30T03:20:47.411Z,53.96
2016-12-30T03:21:56.396Z,53.96
2016-12-30T03:23:05.368Z,53.77
2016-12-30T03:24:14.348Z,53.96
2016-12-30T03:25:23.330Z,53.77
2016-12-30T03:26:32.318Z,54.15
2016-12-30T03:27:41.300Z,54.79
2016-12-30T03:28:50.279Z,54.79
2016-12-30T03:29:59.252Z,55.27
2016-12-30T03:31:08.234Z,54.99
2016-12-30T03:32:17.205Z,54.89
2016-12-30T03:33:26.178Z,53.93
2016-12-30T03:34:35.552Z,53.83
2016-12-30T03:35:44.529Z,54.12
2016-12-30T03:36:53.506Z,53.83
2016-12-30T03:38:02.485Z,53.93
2016-12-30T03:39:11.460Z,53.83
2016-12-30T03:40:20.425Z,54.86
2016-12-30T03:41:29.396Z,54.03
2016-12-30T03:42:38.382Z,54.03
2016-12-30T03:43:47.350Z,54.12
2016-12-30T03:44:56.318Z,54.32
2016-12-30T03:46:05.280Z,55.15
2016-12-30T03:47:14.268Z,55.63
2016-12-30T03:48:23.236Z,55.53
2016-12-30T03:49:32.231Z,55.44
2016-12-30T03:50:41.203Z,55.05
2016-12-30T03:51:50.174Z,54.67
2016-12-30T03:52:59.140Z,54.28
2016-12-30T03:54:08.129Z,54.1
2016-12-30T03:55:17.105Z,54.67
2016-12-30T03:56:26.078Z,54.96
2016-12-30T03:57:35.066Z,54.96
2016-12-30T03:58:44.037Z,54.77
2016-12-30T03:59:53.007Z,54.1
2016-12-30T04:01:01.983Z,55.34
2016-12-30T04:02:11.000Z,55.6
2016-12-30T04:03:19.993Z,55.02
2016-12-30T04:04:28.973Z,54.57
2016-12-30T04:05:37.934Z,54.1
2016-12-30T04:06:46.905Z,55.05
2016-12-30T04:07:55.884Z,55.12
2016-12-30T04:09:04.847Z,55.88
2016-12-30T04:10:13.823Z,55.86
2016-12-30T04:11:22.816Z,56.24
2016-12-30T04:12:31.779Z,56.15
2016-12-30T04:13:40.749Z,55.67
2016-12-30T04:14:50.074Z,55.79
2016-12-30T04:15:59.066Z,55.22
2016-12-30T04:17:08.051Z,55.31
2016-12-30T04:18:17.021Z,55.88
2016-12-30T04:19:25.996Z,55.86
2016-12-30T04:20:34.970Z,56.05
2016-12-30T04:21:43.938Z,55.1
2016-12-30T04:22:52.929Z,55.79
2016-12-30T04:24:01.908Z,55.47
2016-12-30T04:25:10.885Z,55.76
2016-12-30T04:26:19.850Z,55.76
2016-12-30T04:27:28.832Z,56.05
2016-12-30T04:28:37.808Z,56.62
2016-12-30T04:29:46.833Z,56.15
2016-12-30T04:30:55.803Z,55.96
2016-12-30T04:32:04.775Z,55.76
2016-12-30T04:33:13.753Z,56.15
2016-12-30T04:34:22.760Z,56.05
2016-12-30T04:35:31.741Z,56.15
2016-12-30T04:36:40.721Z,56.43
2016-12-30T04:37:49.707Z,56.15
2016-12-30T04:38:58.676Z,56.98
2016-12-30T04:40:07.643Z,57.46
2016-12-30T04:41:16.614Z,57.55
2016-12-30T04:42:25.603Z,57.26
2016-12-30T04:43:34.572Z,57.46
2016-12-30T04:44:43.558Z,57.36
2016-12-30T04:45:52.533Z,57.55
2016-12-30T04:47:01.538Z,57.36
2016-12-30T04:48:10.494Z,57.17
2016-12-30T04:49:19.470Z,57.36
2016-12-30T04:50:28.449Z,57.65
2016-12-30T04:51:37.443Z,57.65
2016-12-30T04:52:46.417Z,58.12
2016-12-30T04:53:55.398Z,57.93
2016-12-30T04:55:04.370Z,58.12
2016-12-30T04:56:13.339Z,57.75
2016-12-30T04:57:22.332Z,57.26
2016-12-30T04:58:31.321Z,57.36
2016-12-30T04:59:40.299Z,57.55
2016-12-30T05:00:49.269Z,57.26
2016-12-30T05:01:58.242Z,57.84
2016-12-30T05:03:07.218Z,57.93
2016-12-30T05:04:16.192Z,57.75
2016-12-30T05:05:25.172Z,57.26
2016-12-30T05:06:34.139Z,57.55
2016-12-30T05:07:43.113Z,57.46
2016-12-30T05:08:52.084Z,57.46
2016-12-30T05:10:01.062Z,57.17
2016-12-30T05:11:10.032Z,57.55
2016-12-30T05:12:19.015Z,57.46
2016-12-30T05:13:28.033Z,57.46
2016-12-30T05:14:37.006Z,57.26
2016-12-30T05:15:45.988Z,57.65
2016-12-30T05:16:54.948Z,57.65
2016-12-30T05:18:03.925Z,57.75
2016-12-30T05:19:12.899Z,58.32
2016-12-30T05:20:21.880Z,58.22
2016-12-30T05:21:30.864Z,58.8
2016-12-30T05:22:39.839Z,58.8
2016-12-30T05:23:48.809Z,58.58
2016-12-30T05:24:57.766Z,57.9
2016-12-30T05:26:06.772Z,58.67
2016-12-30T05:27:15.753Z,58.48
2016-12-30T05:28:24.721Z,58.19
2016-12-30T05:29:33.697Z,58.29
2016-12-30T05:30:42.682Z,58.48
2016-12-30T05:31:51.654Z,58.1
2016-12-30T05:33:00.640Z,58.58
2016-12-30T05:34:09.620Z,58.19
2016-12-30T05:35:18.597Z,58.48
2016-12-30T05:36:27.558Z,58.48
2016-12-30T05:37:36.541Z,58.58
2016-12-30T05:38:45.506Z,59.34
2016-12-30T05:39:54.501Z,58.67
2016-12-30T05:41:03.475Z,58.86
2016-12-30T05:42:12.445Z,58.48
2016-12-30T05:43:21.409Z,58.67
2016-12-30T05:44:30.384Z,58.48
2016-12-30T05:45:39.405Z,58.19
2016-12-30T05:46:48.374Z,58.48
2016-12-30T05:47:57.342Z,58.48
2016-12-30T05:49:06.335Z,58.38
2016-12-30T05:50:15.311Z,58.67
2016-12-30T05:51:24.302Z,59.34
2016-12-30T05:52:33.267Z,59.34
2016-12-30T05:53:42.241Z,59.15
2016-12-30T05:54:51.240Z,59.34
2016-12-30T05:56:00.211Z,59.34
2016-12-30T05:57:09.189Z,58.58
2016-12-30T05:58:18.168Z,58.58
2016-12-30T05:59:27.130Z,59.53
2016-12-30T06:00:36.109Z,59.24
2016-12-30T06:01:45.086Z,58.76
2016-12-30T06:02:54.068Z,58.73
2016-12-30T06:04:03.032Z,58.26
2016-12-30T06:05:12.020Z,58.54
2016-12-30T06:06:20.995Z,59.31
2016-12-30T06:07:29.971Z,58.54
2016-12-30T06:08:38.961Z,59.59
2016-12-30T06:09:47.931Z,59.34
2016-12-30T06:10:56.902Z,59.15
2016-12-30T06:12:05.874Z,59.31
2016-12-30T06:13:14.854Z,58.86
2016-12-30T06:14:23.829Z,59.24
2016-12-30T06:15:32.798Z,59.34
2016-12-30T06:16:41.769Z,58.58
2016-12-30T06:17:51.499Z,58.76
2016-12-30T06:19:00.490Z,58.67
2016-12-30T06:20:09.459Z,58.58
2016-12-30T06:21:18.434Z,58.36
2016-12-30T06:22:27.430Z,59.22
2016-12-30T06:23:36.423Z,59.12
2016-12-30T06:24:45.387Z,59.31
2016-12-30T06:25:54.366Z,59.22
2016-12-30T06:27:03.348Z,58.45
2016-12-30T06:28:12.326Z,59.22
2016-12-30T06:29:21.291Z,59.22
2016-12-30T06:30:30.262Z,59.22
2016-12-30T06:31:39.243Z,58.73
2016-12-30T06:32:48.235Z,58.73
2016-12-30T06:33:57.206Z,58.45
2016-12-30T06:35:06.184Z,58.26
2016-12-30T06:36:15.166Z,58.54
2016-12-30T06:37:24.148Z,58.64
2016-12-30T06:38:33.113Z,58.73
2016-12-30T06:39:42.089Z,58.64
2016-12-30T06:40:51.066Z,58.54
2016-12-30T06:42:00.031Z,58.16
2016-12-30T06:43:09.005Z,58.36
2016-12-30T06:44:17.990Z,58.64
2016-12-30T06:45:27.031Z,58.36
2016-12-30T06:46:36.009Z,58.45
2016-12-30T06:47:45.569Z,58.26
2016-12-30T06:48:54.539Z,58.36
2016-12-30T06:50:03.510Z,58.64
2016-12-30T06:51:12.495Z,58.45
2016-12-30T06:52:21.462Z,58.54
2016-12-30T06:53:30.450Z,58.45
2016-12-30T06:54:39.416Z,58.45
2016-12-30T06:55:48.391Z,58.54
2016-12-30T06:56:57.363Z,58.36
2016-12-30T06:58:06.335Z,58.45
2016-12-30T06:59:15.307Z,58.64
2016-12-30T07:00:24.375Z,58.54
2016-12-30T07:01:33.345Z,58.45
2016-12-30T07:02:42.326Z,57.97
2016-12-30T07:03:51.317Z,57.97
2016-12-30T07:05:00.284Z,57.78
2016-12-30T07:06:09.264Z,57.68
2016-12-30T07:07:18.235Z,57.68
2016-12-30T07:08:27.208Z,58.36
2016-12-30T07:09:36.168Z,58.36
2016-12-30T07:10:45.149Z,58.45
2016-12-30T07:11:54.126Z,58.54
2016-12-30T07:13:03.092Z,58.45
2016-12-30T07:14:12.063Z,58.64
2016-12-30T07:15:21.026Z,58.07
2016-12-30T07:16:30.463Z,58.36
2016-12-30T07:17:39.434Z,58.45
2016-12-30T07:18:48.405Z,58.45
2016-12-30T07:19:57.376Z,58.73
2016-12-30T07:21:06.362Z,58.45
2016-12-30T07:22:15.330Z,56.92
2016-12-30T07:23:24.300Z,57.33
2016-12-30T07:24:33.275Z,61.35
2016-12-30T07:25:42.241Z,64.78
2016-12-30T07:26:51.198Z,65.77
2016-12-30T07:28:00.186Z,65.39
2016-12-30T07:29:09.161Z,66.35
2016-12-30T07:30:18.151Z,64.18
2016-12-30T07:31:27.157Z,66.57
2016-12-30T07:32:36.135Z,65.04
2016-12-30T07:33:45.118Z,64.09
2016-12-30T07:34:54.178Z,62.94
2016-12-30T07:36:03.141Z,63.99
2016-12-30T07:37:12.134Z,64.4
2016-12-30T07:38:21.120Z,65.26
2016-12-30T07:39:30.111Z,64.09
2016-12-30T07:40:39.082Z,63.1
2016-12-30T07:41:48.064Z,62.33
2016-12-30T07:42:57.032Z,62.14
2016-12-30T07:44:06.007Z,61.85
2016-12-30T07:45:14.977Z,61.44
2016-12-30T07:46:23.956Z,60.87
2016-12-30T07:47:32.931Z,60.58
2016-12-30T07:48:41.899Z,60.2
2016-12-30T07:49:50.878Z,60.2
2016-12-30T07:50:59.846Z,60.01
2016-12-30T07:52:08.819Z,59.91
2016-12-30T07:53:17.787Z,59.44
2016-12-30T07:54:26.753Z,59.34
2016-12-30T07:55:35.747Z,59.63
2016-12-30T07:56:44.728Z,59.5
2016-12-30T07:57:53.706Z,59.91
2016-12-30T07:59:02.681Z,60.2
2016-12-30T08:00:11.651Z,59.44
2016-12-30T08:01:20.617Z,59.44
2016-12-30T08:02:29.603Z,59.5
2016-12-30T08:03:38.600Z,59.44
2016-12-30T08:04:47.562Z,59.44
2016-12-30T08:05:56.550Z,59.5
2016-12-30T08:07:05.524Z,59.24
2016-12-30T08:08:14.502Z,59.44
2016-12-30T08:09:23.474Z,59.53
2016-12-30T08:10:32.448Z,59.53
2016-12-30T08:11:41.440Z,60.3
2016-12-30T08:12:50.406Z,59.78
2016-12-30T08:13:59.395Z,60.07
2016-12-30T08:15:08.357Z,60.17
2016-12-30T08:16:17.334Z,61.16
2016-12-30T08:17:26.311Z,61.72
2016-12-30T08:18:35.279Z,64.05
2016-12-30T08:19:44.256Z,64.53
2016-12-30T08:20:53.232Z,64.15
2016-12-30T08:22:02.209Z,63.29
2016-12-30T08:23:11.186Z,62.62
2016-12-30T08:24:20.162Z,61.54
2016-12-30T08:25:29.144Z,61.44
2016-12-30T08:26:38.120Z,62.01
2016-12-30T08:27:47.103Z,61.82
2016-12-30T08:28:56.064Z,61.72
2016-12-30T08:30:05.039Z,61.63
2016-12-30T08:31:14.009Z,61.54
2016-12-30T08:32:22.986Z,61.16
2016-12-30T08:33:31.971Z,61.06
2016-12-30T08:34:40.980Z,60.96
2016-12-30T08:35:49.951Z,60.77
2016-12-30T08:36:58.923Z,61.35
2016-12-30T08:38:07.902Z,63.93
2016-12-30T08:39:16.875Z,64.82
2016-12-30T08:40:25.839Z,67.24
2016-12-30T08:41:34.826Z,65.71
2016-12-30T08:42:43.799Z,66
2016-12-30T08:43:52.816Z,67.63
2016-12-30T08:45:01.795Z,66.51
2016-12-30T08:46:10.767Z,66.13
2016-12-30T08:47:19.734Z,66.86
2016-12-30T08:48:28.704Z,66.57
2016-12-30T08:49:37.681Z,65.61
2016-12-30T08:50:46.655Z,65.52
2016-12-30T08:51:55.636Z,64.95
2016-12-30T08:53:04.604Z,65.45
2016-12-30T08:54:13.577Z,66.03
2016-12-30T08:55:22.551Z,66.86
2016-12-30T08:56:31.528Z,68.23
2016-12-30T08:57:40.506Z,68.9
2016-12-30T08:58:49.479Z,69.19
2016-12-30T08:59:58.449Z,68.23
2016-12-30T09:01:07.415Z,69.8
2016-12-30T09:02:16.400Z,69.51
2016-12-30T09:03:25.372Z,68.74
2016-12-30T09:04:34.391Z,69.29
2016-12-30T09:05:43.359Z,69.99
2016-12-30T09:06:52.332Z,68.94
2016-12-30T09:08:01.312Z,68.65
2016-12-30T09:09:10.283Z,70.28
2016-12-30T09:10:19.265Z,70.18
2016-12-30T09:11:28.252Z,69.03
2016-12-30T09:12:37.231Z,67.79
2016-12-30T09:13:46.206Z,65.97
2016-12-30T09:14:55.182Z,69.32
2016-12-30T09:16:04.163Z,65.97
2016-12-30T09:17:13.135Z,67.6
2016-12-30T09:18:22.121Z,69.13
2016-12-30T09:19:31.094Z,68.27
2016-12-30T09:20:40.074Z,67.69
2016-12-30T09:21:49.040Z,67.11
2016-12-30T09:22:58.020Z,69.03
2016-12-30T09:24:07.014Z,69.6
2016-12-30T09:25:15.985Z,69.8
2016-12-30T09:26:24.962Z,69.6
2016-12-30T09:27:33.934Z,70.47
2016-12-30T09:28:42.898Z,69.26
2016-12-30T09:29:51.869Z,69.54
2016-12-30T09:31:00.856Z,70.6
2016-12-30T09:32:09.827Z,71.27
2016-12-30T09:33:18.816Z,69.93
2016-12-30T09:34:27.868Z,70.21
2016-12-30T09:35:37.059Z,71.17
2016-12-30T09:36:47.808Z,69.35
2016-12-30T09:38:00.767Z,71.37
2016-12-30T09:39:11.784Z,70.41
2016-12-30T09:40:26.392Z,70.7
2016-12-30T09:41:39.262Z,68.78
2016-12-30T09:42:48.327Z,70.41
2016-12-30T09:43:57.305Z,70.7
2016-12-30T09:45:06.282Z,71.08
2016-12-30T09:46:15.245Z,71.66
2016-12-30T09:47:24.216Z,71.66
2016-12-30T09:48:33.187Z,71.46
2016-12-30T09:49:42.168Z,70.5
2016-12-30T09:50:51.148Z,70.7
2016-12-30T09:52:00.118Z,71.37
2016-12-30T09:53:09.090Z,69.29
2016-12-30T09:54:18.108Z,70.31
2016-12-30T09:55:27.098Z,70.79
2016-12-30T09:56:36.072Z,71.69
2016-12-30T09:57:45.067Z,68.33
2016-12-30T09:58:54.044Z,64.85
2016-12-30T10:00:03.021Z,67.25
2016-12-30T10:01:11.989Z,69.83
2016-12-30T10:02:20.994Z,71.46
2016-12-30T10:03:30.081Z,70.6
2016-12-30T10:04:39.639Z,71.31
2016-12-30T10:05:54.229Z,69.87
2016-12-30T10:07:03.720Z,69.68
2016-12-30T10:08:12.691Z,70.44
2016-12-30T10:09:21.674Z,70.83
2016-12-30T10:10:30.648Z,69.1
2016-12-30T10:11:39.642Z,70.03
2016-12-30T10:12:48.614Z,70.73
2016-12-30T10:13:57.595Z,70.25
2016-12-30T10:15:06.565Z,67.95
2016-12-30T10:16:15.555Z,64.12
2016-12-30T10:17:24.519Z,64.95
2016-12-30T10:18:33.509Z,67.25
2016-12-30T10:19:42.479Z,68.78
2016-12-30T10:20:51.453Z,70.03
2016-12-30T10:22:00.419Z,70.64
2016-12-30T10:23:09.408Z,68.75
2016-12-30T10:24:18.385Z,69.52
2016-12-30T10:25:27.347Z,69.71
2016-12-30T10:26:36.335Z,70.38
2016-12-30T10:27:45.440Z,71.44
2016-12-30T10:28:54.523Z,71.63
2016-12-30T10:30:03.670Z,71.92
2016-12-30T10:31:12.673Z,72.53
2016-12-30T10:32:22.874Z,73
2016-12-30T10:33:32.307Z,73.1
2016-12-30T10:34:41.301Z,73.77
2016-12-30T10:35:50.281Z,73.2
2016-12-30T10:36:59.293Z,73.58
2016-12-30T10:38:08.276Z,73.52
2016-12-30T10:39:17.245Z,73.68
2016-12-30T10:40:26.225Z,74.29
2016-12-30T10:41:35.199Z,76.31
2016-12-30T10:42:44.176Z,74.58
2016-12-30T10:43:53.150Z,75.45
2016-12-30T10:45:02.136Z,75.63
2016-12-30T10:46:11.111Z,75.92
2016-12-30T10:47:20.114Z,75
2016-12-30T10:48:29.093Z,74.43
2016-12-30T10:49:38.111Z,74.81
2016-12-30T10:50:47.091Z,74.13
2016-12-30T10:51:56.127Z,75.77
2016-12-30T10:53:05.114Z,75.77
2016-12-30T10:54:14.084Z,75
2016-12-30T10:55:23.118Z,75.77
2016-12-30T10:56:32.092Z,76.15
2016-12-30T10:57:41.065Z,75.87
2016-12-30T10:58:50.032Z,76.25
2016-12-30T10:59:59.009Z,76.06
2016-12-30T11:01:08.404Z,76.54
2016-12-30T11:02:17.383Z,76.64
2016-12-30T11:03:26.359Z,76.64
2016-12-30T11:04:35.343Z,75.96
2016-12-30T11:05:44.310Z,74.85
2016-12-30T11:08:32.050Z,76
2016-12-30T11:09:41.044Z,75.62
2016-12-30T11:10:50.008Z,74.75
2016-12-30T11:11:59.004Z,75.04
2016-12-30T11:13:07.995Z,74.94
2016-12-30T11:14:16.976Z,75.04
2016-12-30T11:15:25.960Z,75.04
2016-12-30T11:16:34.959Z,75.13
2016-12-30T11:17:44.428Z,75.04
2016-12-30T11:18:53.638Z,75.71
2016-12-30T11:20:02.674Z,76.32
2016-12-30T11:21:11.644Z,75.71
2016-12-30T11:22:20.616Z,75.75
2016-12-30T11:23:29.603Z,75.07
2016-12-30T11:24:38.571Z,75.17
2016-12-30T11:25:47.548Z,74.98
2016-12-30T11:26:56.520Z,74.98
2016-12-30T11:28:05.503Z,75.17
2016-12-30T11:29:14.484Z,75.27
2016-12-30T11:30:23.475Z,76.04
2016-12-30T11:31:32.475Z,75.75
2016-12-30T11:32:41.451Z,76.42
2016-12-30T11:33:50.438Z,77
2016-12-30T11:34:59.418Z,75.84
2016-12-30T11:36:08.483Z,75.84
2016-12-30T11:37:17.473Z,76.81
2016-12-30T11:38:26.441Z,76.32
2016-12-30T11:39:35.416Z,77.19
2016-12-30T11:40:44.402Z,76.42
2016-12-30T11:41:53.391Z,76.56
2016-12-30T11:43:02.363Z,76.42
2016-12-30T11:44:11.348Z,76.56
2016-12-30T11:45:20.326Z,75.56
2016-12-30T11:46:29.294Z,75.4
2016-12-30T11:47:38.327Z,75.31
2016-12-30T11:48:47.354Z,75.49
2016-12-30T11:49:56.331Z,75.69
2016-12-30T11:51:05.311Z,75.21
2016-12-30T11:52:14.295Z,75.98
2016-12-30T11:53:23.392Z,75.79
2016-12-30T11:54:33.543Z,76.07
2016-12-30T11:55:42.943Z,75.69
2016-12-30T11:56:51.920Z,75.4
2016-12-30T11:58:00.903Z,75.59
2016-12-30T11:59:09.892Z,75.98
2016-12-30T12:00:18.874Z,75.4
2016-12-30T12:01:27.852Z,74.92
2016-12-30T12:02:36.838Z,74.54
2016-12-30T12:03:45.817Z,74.73
2016-12-30T12:04:54.798Z,75.02
2016-12-30T12:06:03.774Z,75.02
2016-12-30T12:07:12.754Z,77.23
2016-12-30T12:08:21.737Z,75.69
2016-12-30T12:09:30.748Z,76.31
2016-12-30T12:10:39.718Z,75.88
2016-12-30T12:11:48.689Z,76.75
2016-12-30T12:12:57.674Z,76.4
2016-12-30T12:14:06.650Z,76.01
2016-12-30T12:15:15.636Z,76.31
2016-12-30T12:16:24.618Z,76.4
2016-12-30T12:17:33.597Z,76.21
2016-12-30T12:18:42.572Z,76.11
2016-12-30T12:19:51.551Z,75.82
2016-12-30T12:21:00.525Z,76.31
2016-12-30T12:22:09.493Z,76.31
2016-12-30T12:23:18.482Z,76.98
2016-12-30T12:24:27.450Z,76.69
2016-12-30T12:25:36.444Z,76.5
2016-12-30T12:26:45.471Z,76.69
2016-12-30T12:27:54.478Z,77.36
2016-12-30T12:29:03.484Z,77.26
2016-12-30T12:30:12.466Z,77.84
2016-12-30T12:31:21.443Z,78.81
2016-12-30T12:32:30.435Z,78.85
2016-12-30T12:33:39.419Z,79.52
2016-12-30T12:34:48.409Z,79.71
2016-12-30T12:35:57.460Z,80.68
2016-12-30T12:37:06.448Z,81.25
2016-12-30T12:38:15.419Z,80.68
2016-12-30T12:39:24.401Z,81.16
2016-12-30T12:40:34.674Z,81.73
2016-12-30T12:41:43.707Z,82.12
2016-12-30T12:42:52.686Z,81.73
2016-12-30T12:44:01.676Z,81.54
2016-12-30T12:45:10.656Z,81.93
2016-12-30T12:46:19.627Z,81.68
2016-12-30T12:47:28.602Z,80.81
2016-12-30T12:48:37.578Z,80.43
2016-12-30T12:49:46.558Z,80.43
2016-12-30T12:50:55.540Z,79.75
2016-12-30T12:52:04.517Z,79.46
2016-12-30T12:53:13.510Z,80.14
2016-12-30T12:54:22.485Z,79.94
2016-12-30T12:55:31.476Z,80.52
2016-12-30T12:56:40.448Z,79.75
2016-12-30T12:57:49.434Z,79.94
2016-12-30T12:58:58.407Z,79.75
2016-12-30T13:00:07.386Z,79.75
2016-12-30T13:01:16.351Z,79.36
2016-12-30T13:02:25.343Z,79.66
2016-12-30T13:03:34.335Z,79.89
2016-12-30T13:04:43.301Z,79.75
2016-12-30T13:05:52.295Z,79.27
2016-12-30T13:07:01.271Z,78.83
2016-12-30T13:08:10.241Z,78.92
2016-12-30T13:09:19.223Z,79.31
2016-12-30T13:10:28.199Z,79.5
2016-12-30T13:11:37.177Z,79.6
2016-12-30T13:12:46.151Z,79.41
2016-12-30T13:13:55.142Z,79.69
2016-12-30T13:15:04.116Z,79.69
2016-12-30T13:16:13.112Z,79.5
2016-12-30T13:17:22.095Z,79.69
2016-12-30T13:18:31.069Z,79.89
2016-12-30T13:19:40.048Z,78.83
2016-12-30T13:20:49.026Z,78.83
2016-12-30T13:21:58.005Z,78.63
2016-12-30T13:23:06.980Z,79.11
2016-12-30T13:24:15.980Z,78.83
2016-12-30T13:25:24.945Z,78.83
2016-12-30T13:26:33.923Z,79.02
2016-12-30T13:27:42.905Z,78.73
2016-12-30T13:28:51.880Z,79.02
2016-12-30T13:30:00.850Z,79.11
2016-12-30T13:31:09.838Z,79.41
2016-12-30T13:32:18.820Z,78.34
2016-12-30T13:33:27.791Z,77.28
2016-12-30T13:34:36.773Z,76.8
2016-12-30T13:35:45.756Z,73.82
2016-12-30T13:36:54.736Z,72.56
2016-12-30T13:38:03.717Z,73.53
2016-12-30T13:39:12.692Z,75.45
2016-12-30T13:40:21.709Z,75.74
2016-12-30T13:41:30.680Z,75.74
2016-12-30T13:42:39.672Z,76.23
2016-12-30T13:43:48.643Z,76.23
2016-12-30T13:44:57.642Z,76.71
2016-12-30T13:46:06.612Z,76.9
2016-12-30T13:47:15.590Z,77
2016-12-30T13:48:24.577Z,77.09
2016-12-30T13:49:33.555Z,76.71
2016-12-30T13:50:42.531Z,77.19
2016-12-30T13:51:51.508Z,77.38
2016-12-30T13:53:00.539Z,77.76
2016-12-30T13:54:09.523Z,77.28
2016-12-30T13:55:18.507Z,77.48
2016-12-30T13:56:27.489Z,77.76
2016-12-30T13:57:36.469Z,77.96
2016-12-30T13:58:45.456Z,78.15
2016-12-30T13:59:54.426Z,78.06
2016-12-30T14:01:03.397Z,77.58
2016-12-30T14:02:12.370Z,77.58
2016-12-30T14:03:21.361Z,77.33
2016-12-30T14:04:30.345Z,77.96
2016-12-30T14:05:39.317Z,77.28
2016-12-30T14:06:48.301Z,76.93
2016-12-30T14:07:57.284Z,76.55
2016-12-30T14:09:06.265Z,76.45
2016-12-30T14:10:15.259Z,76.71
2016-12-30T14:11:24.240Z,76.51
2016-12-30T14:12:33.209Z,76.61
2016-12-30T14:13:42.191Z,76.51
2016-12-30T14:14:51.162Z,76.9
2016-12-30T14:16:00.186Z,76.9
2016-12-30T14:17:09.170Z,76.75
2016-12-30T14:18:18.547Z,76.9
2016-12-30T14:19:27.530Z,76.32
2016-12-30T14:20:36.505Z,76.51
2016-12-30T14:21:45.482Z,75.93
2016-12-30T14:22:54.490Z,75.93
2016-12-30T14:24:03.476Z,76.13
2016-12-30T14:25:12.444Z,75.93
2016-12-30T14:26:22.370Z,76.13
2016-12-30T14:27:31.361Z,75.84
2016-12-30T14:28:40.342Z,76.32
2016-12-30T14:29:49.324Z,76.13
2016-12-30T14:30:58.321Z,75.93
2016-12-30T14:32:07.303Z,76.13
2016-12-30T14:33:16.291Z,75.93
2016-12-30T14:34:25.345Z,75.93
2016-12-30T14:35:35.163Z,75.84
2016-12-30T14:36:44.173Z,75.84
2016-12-30T14:37:53.174Z,75.93
2016-12-30T14:39:02.166Z,76.03
2016-12-30T14:40:11.181Z,75.84
2016-12-30T14:41:20.160Z,76.23
2016-12-30T14:42:29.141Z,76.03
2016-12-30T14:43:38.132Z,76.13
2016-12-30T14:44:47.123Z,76.13
2016-12-30T14:45:56.102Z,76.23
2016-12-30T14:47:05.074Z,76.23
2016-12-30T14:48:14.063Z,75.84
2016-12-30T14:49:23.082Z,75.93
2016-12-30T14:50:32.091Z,76.13
2016-12-30T14:51:41.060Z,75.93
2016-12-30T14:52:50.050Z,74.78
2016-12-30T14:53:59.040Z,74.97